Terminal Aerodrome Forecast
Issued by NWS

Home | Current Version | Previous Version | Text Only | Print | Product List | Glossary On
Versions: 1 2 3 4 5 6 7 8 9 10 11 12 13 14 15 16 17
000
FTUS42 KMLB 200529
TAFLEE
TAF
KLEE 200529Z 2006/2106 03006KT P6SM SCT020 SCT050
     FM201400 06012KT P6SM SCT025 SCT050
     FM210000 05006KT P6SM FEW025=

USA.gov is the U.S. government's official web portal to all federal, state and local government web resources and services.